WetterOnline ( http://www.wetteronline.de )

Wetter aktuell Verona

Aktuelles Wetter: Paganella (2129m)

6-stündlich | Neueste Meldungen
Ortszeit Temperatur Wetter
Di, 24.04. 20:00 8.0° C leicht bewölkt
Di, 24.04. 14:00 8.8° C leicht bewölkt
Di, 24.04. 8:00 4.6° C leicht bewölkt
Di, 24.04. 2:00 6.2° C wolkenlos
Mo, 23.04. 20:00 7.0° C leicht bewölkt
Mo, 23.04. 14:00 10.6° C leicht bewölkt
Mo, 23.04. 8:00 8.0° C wolkenlos
Mo, 23.04. 2:00 7.4° C wolkenlos
Ortszeit Temperatur Wetter
Di, 24.04. 20:00 8.0° C leicht bewölkt
Di, 24.04. 19:55 8° C -
Di, 24.04. 19:00 8.0° C leicht bewölkt
Di, 24.04. 18:55 8° C leicht bewölkt
Di, 24.04. 18:00 8.2° C leicht bewölkt
Di, 24.04. 17:55 8° C leicht bewölkt
Di, 24.04. 17:00 8.2° C leicht bewölkt
Di, 24.04. 16:00 8.6° C leicht bewölkt
Ortszeit Relative Feuchte Sichtweite
Di, 24.04. 20:00 77% 30 km
Di, 24.04. 14:00 65% 50 km
Di, 24.04. 8:00 98% 25 km
Di, 24.04. 2:00 80% 30 km
Mo, 23.04. 20:00 79% 30 km
Mo, 23.04. 14:00 55% 60 km
Mo, 23.04. 8:00 50% 50 km
Mo, 23.04. 2:00 82% 30 km
Ortszeit Relative Feuchte Sichtweite
Di, 24.04. 20:00 77% 30 km
Di, 24.04. 19:55 76% >10 km
Di, 24.04. 19:00 76% 30 km
Di, 24.04. 18:55 76% >10 km
Di, 24.04. 18:00 75% 35 km
Di, 24.04. 17:55 76% >10 km
Di, 24.04. 17:00 73% 40 km
Di, 24.04. 16:00 69% 40 km
Ortszeit Niederschlagsmenge Niederschlagsart
Di, 24.04. 20:00 0.0 l/m2 in 12 Std. -
Di, 24.04. 14:00 0.0 l/m2 in 6 Std. -
Di, 24.04. 8:00 0.0 l/m2 in 12 Std. Nebel
Di, 24.04. 2:00 0.0 l/m2 in 6 Std. -
Mo, 23.04. 20:00 0.0 l/m2 in 12 Std. -
Mo, 23.04. 14:00 0.0 l/m2 in 6 Std. -
Mo, 23.04. 8:00 0.0 l/m2 in 12 Std. -
Mo, 23.04. 2:00 0.0 l/m2 in 6 Std. -
Ortszeit Niederschlagsmenge Niederschlagsart
Di, 24.04. 20:00 keine Meldung -
Di, 24.04. 19:55 keine Meldung -
Di, 24.04. 19:00 keine Meldung -
Di, 24.04. 18:55 keine Meldung -
Di, 24.04. 18:00 keine Meldung -
Di, 24.04. 17:55 keine Meldung -
Di, 24.04. 17:00 keine Meldung -
Di, 24.04. 16:00 keine Meldung -
Ortszeit Stärke Spitze Richtung
km/h Bft. km/h Grad Sektor
Di, 24.04. 20:00 35 5 - 210° SW
Di, 24.04. 14:00 15 3 - 180° S
Di, 24.04. 8:00 15 3 - 10° N
Di, 24.04. 2:00 9 2 - 30° NO
Mo, 23.04. 20:00 24 4 - 250° W
Mo, 23.04. 14:00 15 3 - 200° S
Mo, 23.04. 8:00 15 3 - 360° N
Mo, 23.04. 2:00 7 2 - 360° N
Ortszeit Stärke Spitze Richtung
km/h Bft. km/h Grad Sektor
Di, 24.04. 20:00 35 5 - 210° SW
Di, 24.04. 19:55 35 5 - 210° SW
Di, 24.04. 19:00 33 5 - 280° W
Di, 24.04. 18:55 33 5 - 280° W
Di, 24.04. 18:00 24 4 - 210° SW
Di, 24.04. 17:55 24 4 - 210° SW
Di, 24.04. 17:00 15 3 - 210° SW
Di, 24.04. 16:00 22 4 - 190° S
Ortszeit Untergrenze Bedeckung Gattung
total tief tief mittel hoch
Di, 24.04. 20:00 2100 m 2/8 1/8 - Ac Ci
Di, 24.04. 14:00 990 m 2/8 2/8 Cu - -
Di, 24.04. 8:00 6000 m 2/8 2/8 - - Ci
Di, 24.04. 2:00 - 0/8 0/8 - - -
Mo, 23.04. 20:00 750 m 4/8 1/8 Cu Ac Ci
Mo, 23.04. 14:00 750 m 3/8 3/8 Cu - Ci
Mo, 23.04. 8:00 - 0/8 0/8 - - -
Mo, 23.04. 2:00 - 0/8 0/8 - - -
Ortszeit Bedeckungsgrad in Achtel und Wolkenuntergrenze
Di, 24.04. 20:00 1(2100m)
Di, 24.04. 19:55 keine Wolken(unter 1500 m)
Di, 24.04. 19:00 1(750m)
Di, 24.04. 18:55 1-2(750m)
Di, 24.04. 18:00 1(750m)
Di, 24.04. 17:55 1-2(750m)
Di, 24.04. 17:00 2(900m)
Di, 24.04. 16:00 2(900m)
Ortszeit Stationsdruck (hPa) Tendenz (hPa in 3 Std.)
Di, 24.04. 20:00 789 - 0,5
Di, 24.04. 14:00 790 0,0
Di, 24.04. 8:00 789 + 0,6
Di, 24.04. 2:00 789 0,0
Mo, 23.04. 20:00 788 - 0,8
Mo, 23.04. 14:00 790 - 0,3
Mo, 23.04. 8:00 790 0,0
Mo, 23.04. 2:00 791 + 0,1
Ortszeit Stationsdruck (hPa) Tendenz (hPa in 3 Std.)
Di, 24.04. 20:00 789 - 0,5
Di, 24.04. 19:55 - keine Meldung
Di, 24.04. 19:00 789 - 0,9
Di, 24.04. 18:55 - keine Meldung
Di, 24.04. 18:00 789 - 0,8
Di, 24.04. 17:55 - keine Meldung
Di, 24.04. 17:00 790 - 0,8
Di, 24.04. 16:00 790 - 0,5
Ortszeit Schneehöhe (cm)
Di, 24.04. 20:00 -
Di, 24.04. 14:00 -
Di, 24.04. 8:00 82
Di, 24.04. 2:00 -
Mo, 23.04. 20:00 84
Mo, 23.04. 14:00 -
Mo, 23.04. 8:00 99
Mo, 23.04. 2:00 -
Ortszeit Schneehöhe (cm)
Di, 24.04. 20:00 -
Di, 24.04. 19:55 -
Di, 24.04. 19:00 -
Di, 24.04. 18:55 -
Di, 24.04. 18:00 -
Di, 24.04. 17:55 -
Di, 24.04. 17:00 -
Di, 24.04. 16:00 -
Link zu dieser Seite / Seite empfehlen

Das Wetter in ...